sensor_id;sensor_type;location;lat;lon;timestamp;P1;durP1;ratioP1;P2;durP2;ratioP2
51515;SDS011;37603;55.614;37.326;2023-12-20T00:09:50;2.8;;;2.6;;
51515;SDS011;37603;55.614;37.326;2023-12-20T00:15:49;3.2;;;2.9;;
51515;SDS011;37603;55.614;37.326;2023-12-20T00:21:48;2.9;;;2.4;;
51515;SDS011;37603;55.614;37.326;2023-12-20T00:33:46;3.3;;;2.9;;
51515;SDS011;37603;55.614;37.326;2023-12-20T00:39:45;3.6;;;3.2;;
51515;SDS011;37603;55.614;37.326;2023-12-20T00:45:44;3.4;;;3.1;;
51515;SDS011;37603;55.614;37.326;2023-12-20T00:51:43;4.4;;;3.3;;
51515;SDS011;37603;55.614;37.326;2023-12-20T01:03:40;4.5;;;3.2;;
51515;SDS011;37603;55.614;37.326;2023-12-20T01:09:39;3.9;;;2.9;;
51515;SDS011;37603;55.614;37.326;2023-12-20T01:15:38;3.0;;;2.3;;
51515;SDS011;37603;55.614;37.326;2023-12-20T01:21:37;4.0;;;2.4;;
51515;SDS011;37603;55.614;37.326;2023-12-20T01:27:36;2.9;;;1.8;;
51515;SDS011;37603;55.614;37.326;2023-12-20T01:33:35;1.9;;;1.5;;
51515;SDS011;37603;55.614;37.326;2023-12-20T01:39:34;3.0;;;1.3;;
51515;SDS011;37603;55.614;37.326;2023-12-20T01:45:33;2.0;;;0.9;;
51515;SDS011;37603;55.614;37.326;2023-12-20T01:51:32;1.9;;;1.0;;
51515;SDS011;37603;55.614;37.326;2023-12-20T01:57:30;1.5;;;1.1;;
51515;SDS011;37603;55.614;37.326;2023-12-20T02:03:29;2.2;;;1.1;;
51515;SDS011;37603;55.614;37.326;2023-12-20T02:09:28;1.9;;;1.1;;
51515;SDS011;37603;55.614;37.326;2023-12-20T02:15:27;2.1;;;1.0;;
51515;SDS011;37603;55.614;37.326;2023-12-20T02:21:31;2.5;;;1.0;;
51515;SDS011;37603;55.614;37.326;2023-12-20T02:27:25;3.0;;;1.5;;
51515;SDS011;37603;55.614;37.326;2023-12-20T02:39:22;4.1;;;1.9;;
51515;SDS011;37603;55.614;37.326;2023-12-20T02:45:21;2.5;;;2.0;;
51515;SDS011;37603;55.614;37.326;2023-12-20T02:51:20;3.0;;;2.0;;
51515;SDS011;37603;55.614;37.326;2023-12-20T02:57:19;3.7;;;2.8;;
51515;SDS011;37603;55.614;37.326;2023-12-20T03:03:18;5.0;;;3.1;;
51515;SDS011;37603;55.614;37.326;2023-12-20T03:09:17;3.7;;;3.2;;
51515;SDS011;37603;55.614;37.326;2023-12-20T03:15:16;3.4;;;2.8;;
51515;SDS011;37603;55.614;37.326;2023-12-20T03:21:15;4.7;;;3.5;;
51515;SDS011;37603;55.614;37.326;2023-12-20T03:27:13;4.9;;;3.5;;
51515;SDS011;37603;55.614;37.326;2023-12-20T03:33:12;5.2;;;3.8;;
51515;SDS011;37603;55.614;37.326;2023-12-20T03:39:11;5.9;;;4.4;;
51515;SDS011;37603;55.614;37.326;2023-12-20T03:45:10;5.8;;;4.2;;
51515;SDS011;37603;55.614;37.326;2023-12-20T03:51:09;7.2;;;4.9;;
51515;SDS011;37603;55.614;37.326;2023-12-20T03:57:08;6.0;;;4.9;;
51515;SDS011;37603;55.614;37.326;2023-12-20T04:03:07;5.9;;;4.5;;
51515;SDS011;37603;55.614;37.326;2023-12-20T04:09:05;5.5;;;4.8;;
51515;SDS011;37603;55.614;37.326;2023-12-20T04:15:05;7.1;;;5.2;;
51515;SDS011;37603;55.614;37.326;2023-12-20T04:21:03;6.4;;;4.8;;
51515;SDS011;37603;55.614;37.326;2023-12-20T04:27:02;6.2;;;4.6;;
51515;SDS011;37603;55.614;37.326;2023-12-20T04:33:01;5.5;;;4.8;;
51515;SDS011;37603;55.614;37.326;2023-12-20T04:39:00;8.9;;;6.1;;
51515;SDS011;37603;55.614;37.326;2023-12-20T04:44:59;12.4;;;8.4;;
51515;SDS011;37603;55.614;37.326;2023-12-20T04:50:58;6.0;;;4.9;;
51515;SDS011;37603;55.614;37.326;2023-12-20T04:56:56;6.6;;;4.9;;
51515;SDS011;37603;55.614;37.326;2023-12-20T05:02:55;5.7;;;5.0;;
51515;SDS011;37603;55.614;37.326;2023-12-20T05:08:54;6.9;;;4.8;;
51515;SDS011;37603;55.614;37.326;2023-12-20T05:14:53;6.5;;;4.6;;
51515;SDS011;37603;55.614;37.326;2023-12-20T05:20:52;6.8;;;5.3;;
51515;SDS011;37603;55.614;37.326;2023-12-20T05:26:52;6.7;;;5.6;;
51515;SDS011;37603;55.614;37.326;2023-12-20T05:32:50;8.6;;;5.4;;
51515;SDS011;37603;55.614;37.326;2023-12-20T05:38:49;8.3;;;5.3;;
51515;SDS011;37603;55.614;37.326;2023-12-20T05:44:47;7.0;;;4.5;;
51515;SDS011;37603;55.614;37.326;2023-12-20T05:50:46;5.4;;;4.3;;
51515;SDS011;37603;55.614;37.326;2023-12-20T05:56:45;6.2;;;4.4;;
51515;SDS011;37603;55.614;37.326;2023-12-20T06:02:44;7.7;;;4.6;;
51515;SDS011;37603;55.614;37.326;2023-12-20T06:08:43;6.7;;;4.3;;
51515;SDS011;37603;55.614;37.326;2023-12-20T06:14:42;6.2;;;3.9;;
51515;SDS011;37603;55.614;37.326;2023-12-20T06:20:41;4.9;;;3.7;;
51515;SDS011;37603;55.614;37.326;2023-12-20T06:26:39;6.3;;;4.1;;
51515;SDS011;37603;55.614;37.326;2023-12-20T06:32:38;5.7;;;4.3;;
51515;SDS011;37603;55.614;37.326;2023-12-20T06:38:37;6.8;;;4.1;;
51515;SDS011;37603;55.614;37.326;2023-12-20T06:44:36;5.3;;;3.8;;
51515;SDS011;37603;55.614;37.326;2023-12-20T06:50:35;5.6;;;3.5;;
51515;SDS011;37603;55.614;37.326;2023-12-20T06:56:34;9.0;;;4.0;;
51515;SDS011;37603;55.614;37.326;2023-12-20T07:02:33;6.7;;;4.3;;
51515;SDS011;37603;55.614;37.326;2023-12-20T07:08:31;7.7;;;4.8;;
51515;SDS011;37603;55.614;37.326;2023-12-20T07:14:30;6.7;;;4.4;;
51515;SDS011;37603;55.614;37.326;2023-12-20T07:20:29;5.5;;;4.5;;
51515;SDS011;37603;55.614;37.326;2023-12-20T07:26:28;9.1;;;5.1;;
51515;SDS011;37603;55.614;37.326;2023-12-20T07:32:27;4.5;;;3.7;;
51515;SDS011;37603;55.614;37.326;2023-12-20T07:38:26;5.7;;;3.7;;
51515;SDS011;37603;55.614;37.326;2023-12-20T07:44:25;6.7;;;3.8;;
51515;SDS011;37603;55.614;37.326;2023-12-20T07:50:24;6.3;;;4.0;;
51515;SDS011;37603;55.614;37.326;2023-12-20T07:56:23;4.8;;;3.7;;
51515;SDS011;37603;55.614;37.326;2023-12-20T08:02:22;5.6;;;3.4;;
51515;SDS011;37603;55.614;37.326;2023-12-20T08:08:20;5.7;;;3.5;;
51515;SDS011;37603;55.614;37.326;2023-12-20T08:14:19;4.2;;;3.5;;
51515;SDS011;37603;55.614;37.326;2023-12-20T08:20:18;4.1;;;2.9;;
51515;SDS011;37603;55.614;37.326;2023-12-20T08:26:18;6.5;;;3.0;;
51515;SDS011;37603;55.614;37.326;2023-12-20T08:32:16;4.6;;;3.0;;
51515;SDS011;37603;55.614;37.326;2023-12-20T08:38:15;3.8;;;3.2;;
51515;SDS011;37603;55.614;37.326;2023-12-20T08:44:14;4.1;;;3.2;;
51515;SDS011;37603;55.614;37.326;2023-12-20T08:50:13;4.2;;;3.4;;
51515;SDS011;37603;55.614;37.326;2023-12-20T08:56:12;4.4;;;3.5;;
51515;SDS011;37603;55.614;37.326;2023-12-20T09:02:10;6.4;;;4.7;;
51515;SDS011;37603;55.614;37.326;2023-12-20T09:08:09;8.1;;;6.0;;
51515;SDS011;37603;55.614;37.326;2023-12-20T09:14:08;7.7;;;6.0;;
51515;SDS011;37603;55.614;37.326;2023-12-20T09:20:07;8.6;;;5.0;;
51515;SDS011;37603;55.614;37.326;2023-12-20T09:26:06;5.4;;;4.2;;
51515;SDS011;37603;55.614;37.326;2023-12-20T09:32:05;5.8;;;3.4;;
51515;SDS011;37603;55.614;37.326;2023-12-20T09:38:04;4.4;;;3.6;;
51515;SDS011;37603;55.614;37.326;2023-12-20T09:44:03;4.3;;;2.8;;
51515;SDS011;37603;55.614;37.326;2023-12-20T09:50:01;3.1;;;2.3;;
51515;SDS011;37603;55.614;37.326;2023-12-20T09:56:00;3.6;;;2.5;;
51515;SDS011;37603;55.614;37.326;2023-12-20T10:01:59;3.0;;;2.4;;
51515;SDS011;37603;55.614;37.326;2023-12-20T10:07:58;4.3;;;2.5;;
51515;SDS011;37603;55.614;37.326;2023-12-20T10:13:58;3.0;;;2.1;;
51515;SDS011;37603;55.614;37.326;2023-12-20T10:19:56;2.8;;;1.8;;
51515;SDS011;37603;55.614;37.326;2023-12-20T10:25:56;2.1;;;1.9;;
51515;SDS011;37603;55.614;37.326;2023-12-20T10:31:53;2.7;;;2.2;;
51515;SDS011;37603;55.614;37.326;2023-12-20T10:37:53;3.2;;;2.0;;
51515;SDS011;37603;55.614;37.326;2023-12-20T10:43:51;3.1;;;2.0;;
51515;SDS011;37603;55.614;37.326;2023-12-20T10:49:50;2.4;;;2.2;;
51515;SDS011;37603;55.614;37.326;2023-12-20T10:55:49;3.0;;;2.2;;
51515;SDS011;37603;55.614;37.326;2023-12-20T11:01:48;3.1;;;2.4;;
51515;SDS011;37603;55.614;37.326;2023-12-20T11:07:47;3.3;;;2.2;;
51515;SDS011;37603;55.614;37.326;2023-12-20T11:13:48;2.9;;;2.3;;
51515;SDS011;37603;55.614;37.326;2023-12-20T11:25:46;3.1;;;2.1;;
51515;SDS011;37603;55.614;37.326;2023-12-20T11:31:42;2.7;;;2.2;;
51515;SDS011;37603;55.614;37.326;2023-12-20T11:37:41;4.0;;;2.3;;
51515;SDS011;37603;55.614;37.326;2023-12-20T11:43:40;3.0;;;2.3;;
51515;SDS011;37603;55.614;37.326;2023-12-20T11:55:38;4.3;;;2.2;;
51515;SDS011;37603;55.614;37.326;2023-12-20T12:01:37;2.3;;;1.9;;
51515;SDS011;37603;55.614;37.326;2023-12-20T12:07:36;2.8;;;1.9;;
51515;SDS011;37603;55.614;37.326;2023-12-20T12:13:35;2.5;;;2.1;;
51515;SDS011;37603;55.614;37.326;2023-12-20T12:19:34;3.7;;;1.9;;
51515;SDS011;37603;55.614;37.326;2023-12-20T12:25:35;3.6;;;1.9;;
51515;SDS011;37603;55.614;37.326;2023-12-20T12:37:30;2.6;;;2.0;;
51515;SDS011;37603;55.614;37.326;2023-12-20T12:43:29;2.1;;;1.8;;
51515;SDS011;37603;55.614;37.326;2023-12-20T12:49:28;2.4;;;2.0;;
51515;SDS011;37603;55.614;37.326;2023-12-20T12:55:27;3.0;;;1.8;;
51515;SDS011;37603;55.614;37.326;2023-12-20T13:01:26;2.4;;;1.8;;
51515;SDS011;37603;55.614;37.326;2023-12-20T13:07:25;2.3;;;1.8;;
51515;SDS011;37603;55.614;37.326;2023-12-20T13:13:23;2.8;;;1.7;;
51515;SDS011;37603;55.614;37.326;2023-12-20T13:19:22;2.6;;;1.7;;
51515;SDS011;37603;55.614;37.326;2023-12-20T13:25:21;3.2;;;1.7;;
51515;SDS011;37603;55.614;37.326;2023-12-20T13:31:20;3.0;;;1.7;;
51515;SDS011;37603;55.614;37.326;2023-12-20T13:37:19;3.3;;;1.8;;
51515;SDS011;37603;55.614;37.326;2023-12-20T13:43:18;1.9;;;1.6;;
51515;SDS011;37603;55.614;37.326;2023-12-20T13:49:17;2.5;;;1.7;;
51515;SDS011;37603;55.614;37.326;2023-12-20T13:55:16;2.6;;;1.7;;
51515;SDS011;37603;55.614;37.326;2023-12-20T14:01:14;2.1;;;1.5;;
51515;SDS011;37603;55.614;37.326;2023-12-20T14:07:14;3.8;;;1.8;;
51515;SDS011;37603;55.614;37.326;2023-12-20T14:13:12;6.7;;;2.0;;
51515;SDS011;37603;55.614;37.326;2023-12-20T14:19:11;2.7;;;1.8;;
51515;SDS011;37603;55.614;37.326;2023-12-20T14:25:10;2.1;;;1.9;;
51515;SDS011;37603;55.614;37.326;2023-12-20T14:31:09;2.8;;;2.0;;
51515;SDS011;37603;55.614;37.326;2023-12-20T14:37:08;3.2;;;2.1;;
51515;SDS011;37603;55.614;37.326;2023-12-20T14:43:07;4.1;;;3.1;;
51515;SDS011;37603;55.614;37.326;2023-12-20T14:49:05;5.0;;;3.6;;
51515;SDS011;37603;55.614;37.326;2023-12-20T14:55:05;4.0;;;3.5;;
51515;SDS011;37603;55.614;37.326;2023-12-20T15:01:03;7.0;;;3.6;;
51515;SDS011;37603;55.614;37.326;2023-12-20T15:07:03;4.8;;;3.3;;
51515;SDS011;37603;55.614;37.326;2023-12-20T15:19:00;5.4;;;3.5;;
51515;SDS011;37603;55.614;37.326;2023-12-20T15:24:59;4.9;;;3.4;;
51515;SDS011;37603;55.614;37.326;2023-12-20T15:30:58;4.7;;;3.2;;
51515;SDS011;37603;55.614;37.326;2023-12-20T15:36:57;3.8;;;3.3;;
51515;SDS011;37603;55.614;37.326;2023-12-20T15:42:55;5.0;;;3.4;;
51515;SDS011;37603;55.614;37.326;2023-12-20T15:48:54;6.2;;;3.3;;
51515;SDS011;37603;55.614;37.326;2023-12-20T15:54:53;5.6;;;3.4;;
51515;SDS011;37603;55.614;37.326;2023-12-20T16:00:52;6.5;;;5.3;;
51515;SDS011;37603;55.614;37.326;2023-12-20T16:06:51;6.4;;;4.2;;
51515;SDS011;37603;55.614;37.326;2023-12-20T16:12:50;4.7;;;3.0;;
51515;SDS011;37603;55.614;37.326;2023-12-20T16:18:49;4.2;;;2.7;;
51515;SDS011;37603;55.614;37.326;2023-12-20T16:24:47;2.6;;;1.7;;
51515;SDS011;37603;55.614;37.326;2023-12-20T16:30:46;1.5;;;1.4;;
51515;SDS011;37603;55.614;37.326;2023-12-20T16:36:50;2.2;;;1.6;;
51515;SDS011;37603;55.614;37.326;2023-12-20T16:42:44;3.2;;;2.4;;
51515;SDS011;37603;55.614;37.326;2023-12-20T16:48:43;4.1;;;2.6;;
51515;SDS011;37603;55.614;37.326;2023-12-20T16:54:45;2.6;;;1.9;;
51515;SDS011;37603;55.614;37.326;2023-12-20T17:00:42;2.8;;;2.4;;
51515;SDS011;37603;55.614;37.326;2023-12-20T17:06:39;3.5;;;2.4;;
51515;SDS011;37603;55.614;37.326;2023-12-20T17:12:38;2.3;;;2.1;;
51515;SDS011;37603;55.614;37.326;2023-12-20T17:18:37;3.4;;;2.3;;
51515;SDS011;37603;55.614;37.326;2023-12-20T17:24:36;3.9;;;2.9;;
51515;SDS011;37603;55.614;37.326;2023-12-20T17:30:35;4.3;;;3.0;;
51515;SDS011;37603;55.614;37.326;2023-12-20T17:36:34;10.4;;;6.7;;
51515;SDS011;37603;55.614;37.326;2023-12-20T17:42:33;11.5;;;6.9;;
51515;SDS011;37603;55.614;37.326;2023-12-20T17:48:32;10.6;;;6.7;;
51515;SDS011;37603;55.614;37.326;2023-12-20T17:54:30;9.4;;;6.0;;
51515;SDS011;37603;55.614;37.326;2023-12-20T18:00:31;8.1;;;5.6;;
51515;SDS011;37603;55.614;37.326;2023-12-20T18:06:28;7.4;;;4.6;;
51515;SDS011;37603;55.614;37.326;2023-12-20T18:12:27;8.0;;;4.7;;
51515;SDS011;37603;55.614;37.326;2023-12-20T18:18:26;5.1;;;3.6;;
51515;SDS011;37603;55.614;37.326;2023-12-20T18:24:25;3.0;;;2.4;;
51515;SDS011;37603;55.614;37.326;2023-12-20T18:30:24;2.8;;;2.4;;
51515;SDS011;37603;55.614;37.326;2023-12-20T18:36:22;4.9;;;2.5;;
51515;SDS011;37603;55.614;37.326;2023-12-20T18:42:21;3.8;;;2.9;;
51515;SDS011;37603;55.614;37.326;2023-12-20T18:54:19;4.2;;;2.8;;
51515;SDS011;37603;55.614;37.326;2023-12-20T19:00:18;3.9;;;2.9;;
51515;SDS011;37603;55.614;37.326;2023-12-20T19:06:17;5.1;;;3.3;;
51515;SDS011;37603;55.614;37.326;2023-12-20T19:12:16;4.6;;;3.7;;
51515;SDS011;37603;55.614;37.326;2023-12-20T19:18:15;5.6;;;4.0;;
51515;SDS011;37603;55.614;37.326;2023-12-20T19:24:13;6.5;;;4.1;;
51515;SDS011;37603;55.614;37.326;2023-12-20T19:30:12;6.2;;;4.2;;
51515;SDS011;37603;55.614;37.326;2023-12-20T19:36:11;6.4;;;4.5;;
51515;SDS011;37603;55.614;37.326;2023-12-20T19:42:10;7.0;;;4.5;;
51515;SDS011;37603;55.614;37.326;2023-12-20T19:48:09;5.7;;;3.8;;
51515;SDS011;37603;55.614;37.326;2023-12-20T19:54:08;5.2;;;3.9;;
51515;SDS011;37603;55.614;37.326;2023-12-20T20:00:07;4.7;;;3.7;;
51515;SDS011;37603;55.614;37.326;2023-12-20T20:12:05;5.9;;;3.4;;
51515;SDS011;37603;55.614;37.326;2023-12-20T20:18:04;4.3;;;3.2;;
51515;SDS011;37603;55.614;37.326;2023-12-20T20:24:02;5.3;;;3.1;;
51515;SDS011;37603;55.614;37.326;2023-12-20T20:30:01;4.3;;;2.8;;
51515;SDS011;37603;55.614;37.326;2023-12-20T20:36:00;5.0;;;2.8;;
51515;SDS011;37603;55.614;37.326;2023-12-20T20:41:58;6.2;;;3.0;;
51515;SDS011;37603;55.614;37.326;2023-12-20T20:47:57;4.8;;;2.5;;
51515;SDS011;37603;55.614;37.326;2023-12-20T20:53:56;5.6;;;3.0;;
51515;SDS011;37603;55.614;37.326;2023-12-20T20:59:55;6.0;;;3.5;;
51515;SDS011;37603;55.614;37.326;2023-12-20T21:05:54;5.3;;;4.0;;
51515;SDS011;37603;55.614;37.326;2023-12-20T21:11:53;7.0;;;4.2;;
51515;SDS011;37603;55.614;37.326;2023-12-20T21:17:52;5.5;;;4.1;;
51515;SDS011;37603;55.614;37.326;2023-12-20T21:23:50;6.1;;;4.1;;
51515;SDS011;37603;55.614;37.326;2023-12-20T21:29:49;7.1;;;5.2;;
51515;SDS011;37603;55.614;37.326;2023-12-20T21:35:48;6.5;;;4.8;;
51515;SDS011;37603;55.614;37.326;2023-12-20T21:41:47;7.5;;;5.7;;
51515;SDS011;37603;55.614;37.326;2023-12-20T21:47:46;8.0;;;6.6;;
51515;SDS011;37603;55.614;37.326;2023-12-20T21:53:45;11.3;;;8.8;;
51515;SDS011;37603;55.614;37.326;2023-12-20T21:59:44;11.4;;;9.4;;
51515;SDS011;37603;55.614;37.326;2023-12-20T22:05:42;14.0;;;11.1;;
51515;SDS011;37603;55.614;37.326;2023-12-20T22:11:41;13.3;;;10.2;;
51515;SDS011;37603;55.614;37.326;2023-12-20T22:17:40;16.6;;;11.6;;
51515;SDS011;37603;55.614;37.326;2023-12-20T22:23:39;15.6;;;11.3;;
51515;SDS011;37603;55.614;37.326;2023-12-20T22:29:38;16.1;;;11.2;;
51515;SDS011;37603;55.614;37.326;2023-12-20T22:35:37;15.3;;;11.0;;
51515;SDS011;37603;55.614;37.326;2023-12-20T22:41:35;13.6;;;10.4;;
51515;SDS011;37603;55.614;37.326;2023-12-20T22:47:34;12.2;;;9.4;;
51515;SDS011;37603;55.614;37.326;2023-12-20T22:53:33;10.6;;;7.9;;
51515;SDS011;37603;55.614;37.326;2023-12-20T22:59:32;12.9;;;8.1;;
51515;SDS011;37603;55.614;37.326;2023-12-20T23:05:31;9.4;;;7.0;;
51515;SDS011;37603;55.614;37.326;2023-12-20T23:11:30;7.5;;;6.4;;
51515;SDS011;37603;55.614;37.326;2023-12-20T23:23:27;6.4;;;5.2;;
51515;SDS011;37603;55.614;37.326;2023-12-20T23:29:26;6.1;;;5.2;;
51515;SDS011;37603;55.614;37.326;2023-12-20T23:35:25;5.9;;;5.3;;
51515;SDS011;37603;55.614;37.326;2023-12-20T23:41:24;4.6;;;4.2;;
51515;SDS011;37603;55.614;37.326;2023-12-20T23:47:22;4.2;;;3.8;;
51515;SDS011;37603;55.614;37.326;2023-12-20T23:53:21;4.5;;;3.9;;
51515;SDS011;37603;55.614;37.326;2023-12-20T23:59:20;4.4;;;4.0;;
